Latest Coastal Weather Observations for Wyndham Airport

IDW60701

Issued at 1:55 am WST Saturday 22 November 2014 (issued every 10 minutes, with the page automatically refreshed every 10 minutes)

About coastal observations | Map of coastal stations | Coastal observations for WA | Marine services | Other Formats
Station Details ID: 001006 Name: WYNDHAM AERO Lat: -15.51 Lon: 128.15 Height: 3.8 m
Data from the previous 72 hours. | See also: Recent months for locations in Western Australia
Date/Time
WST
Temp

°C
Wind Pressure Rain
since 9am
mm
Weather Cloud Vis
km
Sea
Height
m
Swell
Dir
 
Speed
knots
Gust
knots
hPa Trend Height
m
Period
s
Dir
22/01:30am 31.0 WNW 8 10 1007.8 - 0.0 - - - - - - -
22/01:00am 31.2 W 9 12 1008.0 - 0.0 - - - - - - -
22/12:30am 31.3 WNW 11 13 1008.2 - 0.0 - - - - - - -
22/12:00am 31.5 W 10 13 1008.6 - 0.0 - - - - - - -
 
Date/Time
WST
Temp

°C
Wind Pressure Rain
since 9am
mm
Weather Cloud Vis
km
Sea
Height
m
Swell
Dir
 
Speed
knots
Gust
knots
hPa Trend Height
m
Period
s
Dir
21/11:30pm 31.6 W 12 14 1008.8 - 0.0 - - - - - - -
21/11:00pm 31.7 W 10 13 1009.2 - 0.0 - - - - - - -
21/10:30pm 31.9 W 7 10 1009.3 - 0.0 - - - - - - -
21/10:00pm 32.0 W 6 7 1009.3 - 0.0 - - - - - - -
21/09:30pm 32.0 NW 7 8 1009.2 - 0.0 - - - - - - -
21/09:00pm 32.2 NW 7 9 1009.2 - 0.0 - - - - - - -
21/08:30pm 32.8 NW 8 11 1009.2 - 0.0 - - - - - - -
21/08:00pm 33.1 WNW 5 6 1008.7 - 0.0 - - - - - - -
21/07:30pm 33.1 NNW 11 14 1008.2 - 0.0 - - - - - - -
21/07:00pm 32.9 NW 5 9 1007.7 - 0.0 - - - - - - -
21/06:30pm 33.1 N 12 19 1007.0 - 0.0 - - - - - - -
21/06:00pm 33.0 N 18 26 1006.4 - 0.0 - - - - - - -
21/05:30pm 33.7 N 19 25 1006.1 - 0.0 - - - - - - -
21/05:00pm 34.8 N 20 25 1006.0 - 0.0 - - - - - - -
21/04:30pm 36.1 N 19 24 1005.5 - 0.0 - - - - - - -
21/04:00pm 37.4 N 18 22 1005.3 - 0.0 - - - - - - -
21/03:30pm 39.3 N 13 18 1005.1 - 0.0 - - - - - - -
21/03:00pm 39.2 N 13 21 1005.4 - 0.0 - - - - - - -
21/02:30pm 40.8 N 15 22 1005.6 - 0.0 - - - - - - -
21/02:00pm 39.8 NNW 14 20 1005.7 - 0.0 - - - - - - -
21/01:30pm 41.2 N 12 20 1006.0 - 0.0 - - - - - - -
21/01:00pm 40.6 WNW 7 11 1006.4 - 0.0 - - - - - - -
21/12:30pm 39.9 ENE 5 8 1006.9 - 0.0 - - - - - - -
21/12:00pm 40.6 N 7 13 1007.4 - 0.0 - - - - - - -
21/11:30am 39.2 N 6 11 1007.9 - 0.0 - - - - - - -
21/11:00am 39.0 NNE 6 13 1008.4 - 0.0 - - - - - - -
21/10:30am 39.1 S 5 9 1009.0 - 0.0 - - - - - - -
21/10:00am 38.6 ENE 6 10 1009.5 - 0.0 - - - - - - -
21/09:30am 36.8 N 5 11 1009.8 - 0.0 - - - - - - -
21/09:00am 36.7 N 4 8 1010.0 - 0.0 - - - - - - -
21/08:30am 36.2 E 3 5 1010.2 - 0.0 - - - - - - -
21/08:00am 35.1 NNW 5 7 1010.2 - 0.0 - - - - - - -
21/07:30am 33.6 WNW 4 7 1010.2 - 0.0 - - - - - - -
21/07:00am 32.9 W 2 5 1010.0 - 0.0 - - - - - - -
21/06:30am 32.1 S 3 5 1010.1 - 0.0 - - - - - - -
21/06:00am 31.3 SE 2 5 1009.7 - 0.0 - - - - - - -
21/05:30am 29.4 CALM 0 0 1009.2 - 0.0 - - - - - - -
21/05:00am 28.0 CALM 0 0 1008.9 - 0.0 - - - - - - -
21/04:30am 27.9 CALM 0 0 1008.5 - 0.0 - - - - - - -
21/04:00am 28.9 WSW 5 7 1008.1 - 0.0 - - - - - - -
21/03:30am 28.8 W 5 6 1008.1 - 0.0 - - - - - - -
21/03:00am 28.8 SW 4 6 1007.9 - 0.0 - - - - - - -
21/02:30am 29.1 SW 4 5 1007.8 - 0.0 - - - - - - -
21/02:00am 29.4 W 5 6 1007.7 - 0.0 - - - - - - -
21/01:30am 30.3 W 6 7 1007.7 - 0.0 - - - - - - -
21/01:00am 30.7 NW 6 7 1008.0 - 0.0 - - - - - - -
21/12:30am 31.0 NW 7 9 1008.4 - 0.0 - - - - - - -
21/12:00am 31.4 NW 9 11 1008.7 - 0.0 - - - - - - -
 
Date/Time
WST
Temp

°C
Wind Pressure Rain
since 9am
mm
Weather Cloud Vis
km
Sea
Height
m
Swell
Dir
 
Speed
knots
Gust
knots
hPa Trend Height
m
Period
s
Dir
20/11:30pm 31.6 W 6 9 1008.9 - 0.0 - - - - - - -
20/11:00pm 31.4 WSW 6 8 1009.1 - 0.0 - - - - - - -
20/10:30pm 31.0 SW 5 7 1009.4 - 0.0 - - - - - - -
20/10:00pm 30.6 CALM 0 0 1009.3 - 0.0 - - - - - - -
20/09:30pm 30.6 N 2 3 1009.2 - 0.0 - - - - - - -
20/09:00pm 31.1 N 2 3 1008.9 - 0.0 - - - - - - -
20/08:30pm 31.6 CALM 0 3 1008.7 - 0.0 - - - - - - -
20/08:00pm 31.9 N 4 8 1008.4 - 0.0 - - - - - - -
20/07:30pm 31.9 N 5 9 1008.0 - 0.0 - - - - - - -
20/07:00pm 31.7 NNW 11 21 1007.8 - 0.0 - - - - - - -
20/06:30pm 32.1 N 18 24 1006.6 - 0.0 - - - - - - -
20/06:00pm 32.1 N 19 24 1006.1 - 0.0 - - - - - - -
20/05:30pm 32.6 N 18 24 1005.9 - 0.0 - - - - - - -
20/05:00pm 33.3 N 18 24 1005.8 - 0.0 - - - - - - -
20/04:30pm 34.3 N 17 23 1005.3 - 0.0 - - - - - - -
20/04:00pm 36.1 N 18 24 1004.8 - 0.0 - - - - - - -
20/03:30pm 38.0 N 15 19 1004.7 - 0.0 - - - - - - -
20/03:02pm 40.7 NE 19 27 1004.6 - 0.0 - - - - - - -
20/03:00pm 42.0 ENE 9 14 1004.8 - 0.0 - - - - - - -
20/02:30pm 41.5 SE 7 14 1005.3 - 0.0 - - - - - - -
20/02:00pm 41.1 W 9 13 1005.7 - 0.0 - - - - - - -
20/01:30pm 39.1 WNW 7 11 1006.3 - 0.0 - - - - - - -
20/01:00pm 38.9 W 8 12 1007.0 - 0.0 - - - - - - -
20/12:30pm 39.4 W 7 11 1007.4 - 0.0 - - - - - - -
20/12:00pm 38.0 W 4 8 1007.8 - 0.0 - - - - - - -
20/11:30am 36.9 SW 3 6 1008.4 - 0.0 - - - - - - -
20/11:00am 35.6 W 4 6 1008.9 - 0.0 - - - - - - -
20/10:30am 33.9 WSW 5 7 1009.6 - 0.0 - - - - - - -
20/10:00am 33.5 W 4 6 1009.9 - 0.0 - - - - - - -
20/09:30am 32.8 NNW 4 9 1010.2 - 0.0 - - - - - - -
20/09:00am 32.6 NNW 5 6 1010.4 - 0.0 - - - - - - -
20/08:30am 32.0 SSE 3 5 1010.6 - 0.0 - - - - - - -
20/08:00am 31.5 ESE 6 8 1010.9 - 0.0 - - - - - - -
20/07:30am 31.1 E 7 11 1010.9 - 0.0 - - - - - - -
20/07:00am 31.1 E 10 13 1011.1 - 0.0 - - - - - - -
20/06:30am 30.4 ESE 1 6 1010.4 - 0.0 - - - - - - -
20/06:00am 29.7 SE 4 6 1010.3 - 0.0 - - - - - - -
20/05:30am 28.9 S 3 5 1009.9 - 0.0 - - - - - - -
20/05:00am 28.4 NNW 3 5 1009.7 - 0.0 - - - - - - -
20/04:30am 27.8 ESE 7 9 1009.7 - 0.0 - - - - - - -
20/04:00am 30.4 NE 1 6 1009.4 - 0.0 - - - - - - -
20/03:30am 30.7 N 3 6 1009.0 - 0.0 - - - - - - -
20/03:00am 31.4 W 6 7 1008.3 - 0.0 - - - - - - -
20/02:30am 31.5 WNW 7 9 1008.1 - 0.0 - - - - - - -
20/02:00am 31.4 WNW 9 11 1008.2 - 0.0 - - - - - - -
20/01:30am 31.1 W 5 7 1008.2 - 0.0 - - - - - - -
20/01:00am 30.4 CALM 0 0 1008.3 - 0.0 - - - - - - -
20/12:30am 30.1 SE 4 4 1008.5 - 0.0 - - - - - - -
20/12:00am 30.2 E 5 5 1008.5 - 0.0 - - - - - - -
 
Date/Time
WST
Temp

°C
Wind Pressure Rain
since 9am
mm
Weather Cloud Vis
km
Sea
Height
m
Swell
Dir
 
Speed
knots
Gust
knots
hPa Trend Height
m
Period
s
Dir
19/11:30pm 30.5 E 5 5 1008.8 - 0.0 - - - - - - -
19/11:00pm 30.3 E 6 7 1009.2 - 0.0 - - - - - - -
19/10:30pm 30.4 ESE 6 9 1009.4 - 0.0 - - - - - - -
19/10:00pm 29.7 E 7 9 1009.5 - 0.0 - - - - - - -
19/09:30pm 30.4 SE 9 11 1009.5 - 0.0 - - - - - - -
19/09:00pm 31.5 SE 10 11 1009.6 - 0.0 - - - - - - -
19/08:30pm 33.2 N 7 10 1009.1 - 0.0 - - - - - - -
19/08:00pm 33.1 SW 6 9 1009.3 - 0.0 - - - - - - -
19/07:30pm 33.8 N 10 16 1008.6 - 0.0 - - - - - - -
19/07:00pm 34.0 N 13 18 1008.2 - 0.0 - - - - - - -
19/06:30pm 34.4 N 13 17 1007.8 - 0.0 - - - - - - -
19/06:00pm 35.7 N 12 15 1007.6 - 0.0 - - - - - - -
19/05:30pm 38.0 N 9 12 1007.2 - 0.0 - - - - - - -
19/05:00pm 39.1 NNW 9 13 1006.9 - 0.0 - - - - - - -
19/04:30pm 39.6 NNW 10 13 1006.6 - 0.0 - - - - - - -
19/04:00pm 40.0 NW 11 14 1006.6 - 0.0 - - - - - - -
19/03:30pm 41.0 NNW 11 17 1006.5 - 0.0 - - - - - - -
19/03:00pm 40.2 N 6 11 1006.8 - 0.0 - - - - - - -
19/02:30pm 40.9 W 6 11 1007.1 - 0.0 - - - - - - -
19/02:00pm 40.9 W 5 10 1007.5 - 0.0 - - - - - - -
19/01:30pm 39.9 NW 6 11 1008.0 - 0.0 - - - - - - -
19/01:00pm 39.5 WNW 5 9 1008.6 - 0.0 - - - - - - -
19/12:30pm 38.2 NW 7 11 1009.1 - 0.0 - - - - - - -
19/12:00pm 38.6 NNW 7 13 1009.7 - 0.0 - - - - - - -
19/11:30am 37.7 SW 7 12 1010.2 - 0.0 - - - - - - -
19/11:00am 36.1 WSW 7 11 1010.7 - 0.0 - - - - - - -
19/10:30am 35.2 WSW 6 8 1011.0 - 0.0 - - - - - - -
19/10:00am 32.8 WSW 3 6 1011.4 - 0.0 - - - - - - -
19/09:30am 30.9 SSE 2 5 1011.9 - 0.0 - - - - - - -
19/09:00am 29.9 S 4 6 1012.1 - 0.4 - - - - - - -
19/08:30am 29.4 WNW 9 11 1012.0 - 0.4 - - - - - - -
19/08:00am 28.7 W 9 12 1012.4 - 0.4 - - - - - - -
19/07:30am 27.9 W 10 11 1012.5 - 0.4 - - - - - - -
19/07:00am 27.6 W 8 9 1012.5 - 0.4 - - - - - - -
19/06:30am 27.0 W 5 11 1012.6 - 0.4 - - - - - - -
19/06:00am 25.4 N 5 7 1012.4 - 0.2 Rain - - - - - -
19/05:30am 26.1 SE 11 14 1012.6 - 0.0 - - - - - - -
19/05:00am 25.9 ESE 12 16 1012.6 - 0.0 - - - - - - -
19/04:30am 29.6 E 13 19 1011.8 - 0.0 - - - - - - -
19/04:21am 29.6 ESE 15 18 1011.5 - 0.0 - - - - - - -
19/04:00am 30.2 WSW 4 6 1010.1 - 0.0 - - - - - - -
19/03:30am 30.1 SSE 3 6 1010.0 - 0.0 - - - - - - -
19/03:00am 30.4 WNW 5 6 1009.5 - 0.0 - - - - - - -
19/02:30am 30.6 W 7 9 1009.1 - 0.0 - - - - - - -
19/02:00am 30.8 W 7 8 1009.1 - 0.0 - - - - - - -

Other Formats:

Comma delimited format used in spreadsheet applications
http://www.bom.gov.au/fwo/IDW60701/IDW60701.95214.axf

JavaScript Object Notation format (JSON) in row-major order
http://www.bom.gov.au/fwo/IDW60701/IDW60701.95214.json